Time;durP1;ratioP1;P1;durP2;ratioP2;P2;SDS_P1;SDS_P2;PMS_P1;PMS_P2;Temp;Humidity;BMP_temperature;BMP_pressure;BME280_temperature;BME280_humidity;BME280_pressure;Samples;Min_cycle;Max_cycle;Signal;HPM_P1;HPM_P2
2021/07/12 00:01:35;;;;;;;2.60;2.15;;;;;;;;;;5063373;28;20079;-75
2021/07/12 00:04:20;;;;;;;2.85;2.35;;;;;;;;;;5061972;28;20059;-74
2021/07/12 00:07:04;;;;;;;3.38;2.40;;;;;;;;;;5062553;28;20393;-75
2021/07/12 00:09:49;;;;;;;4.03;2.33;;;;;;;;;;5064284;28;20676;-74
2021/07/12 00:12:34;;;;;;;3.85;2.55;;;;;;;;;;5062710;28;20571;-74
2021/07/12 00:15:19;;;;;;;2.90;2.20;;;;;;;;;;5063611;28;20466;-75
2021/07/12 00:18:03;;;;;;;2.60;2.22;;;;;;;;;;5048792;28;20043;-75
2021/07/12 00:20:48;;;;;;;3.63;2.63;;;;;;;;;;5063716;28;20409;-75
2021/07/12 00:23:32;;;;;;;3.90;2.42;;;;;;;;;;5063674;28;20174;-75
2021/07/12 00:26:17;;;;;;;3.70;2.80;;;;;;;;;;5062338;28;20031;-75
2021/07/12 00:29:02;;;;;;;3.08;2.35;;;;;;;;;;5061890;28;20094;-75
2021/07/12 00:31:46;;;;;;;3.13;2.28;;;;;;;;;;5063030;28;20142;-75
2021/07/12 00:34:31;;;;;;;3.45;2.50;;;;;;;;;;5039579;28;20052;-75
2021/07/12 00:37:15;;;;;;;3.03;2.28;;;;;;;;;;5043553;28;20039;-74
2021/07/12 00:40:00;;;;;;;4.03;2.60;;;;;;;;;;5049051;28;20110;-75
2021/07/12 00:42:44;;;;;;;3.45;2.58;;;;;;;;;;5062259;28;20118;-75
2021/07/12 00:45:29;;;;;;;2.50;2.10;;;;;;;;;;5062289;28;20193;-75
2021/07/12 00:48:14;;;;;;;3.65;2.50;;;;;;;;;;5062850;28;20096;-75
2021/07/12 00:50:59;;;;;;;2.35;2.10;;;;;;;;;;5044034;28;20123;-74
2021/07/12 00:53:44;;;;;;;2.85;2.40;;;;;;;;;;5063034;28;20098;-75
2021/07/12 00:56:29;;;;;;;2.60;2.30;;;;;;;;;;5062795;28;20047;-75
2021/07/12 00:59:13;;;;;;;2.58;2.00;;;;;;;;;;5045245;28;20170;-75
2021/07/12 01:01:58;;;;;;;3.75;2.40;;;;;;;;;;5063838;28;20120;-75
2021/07/12 01:04:42;;;;;;;2.90;2.20;;;;;;;;;;5059210;28;20047;-74
2021/07/12 01:07:27;;;;;;;3.20;2.40;;;;;;;;;;5063050;28;20547;-74
2021/07/12 01:10:12;;;;;;;3.80;2.25;;;;;;;;;;5038399;28;20114;-75
2021/07/12 01:13:03;;;;;;;3.03;2.05;;;;;;;;;;5044499;28;20067;-75
2021/07/12 01:15:55;;;;;;;2.72;2.30;;;;;;;;;;5039339;28;20091;-74
2021/07/12 01:18:41;;;;;;;;;;;;;;;;;;5049121;28;20520;-75
2021/07/12 01:21:45;;;;;;;2.75;1.88;;;;;;;;;;5062605;28;19997;-75
2021/07/12 01:24:48;;;;;;;2.58;2.20;;;;;;;;;;5056412;28;20105;-74
2021/07/12 01:27:53;;;;;;;3.00;1.95;;;;;;;;;;5066076;28;20098;-75
2021/07/12 01:30:53;;;;;;;2.63;1.83;;;;;;;;;;5064021;28;20491;-74
2021/07/12 01:33:48;;;;;;;2.88;2.17;;;;;;;;;;5057870;28;20062;-75
2021/07/12 01:36:42;;;;;;;2.97;2.28;;;;;;;;;;5045285;28;20040;-75
2021/07/12 01:39:28;;;;;;;3.00;2.03;;;;;;;;;;5060150;28;20047;-75
2021/07/12 01:42:15;;;;;;;3.28;2.35;;;;;;;;;;5065027;28;20138;-75
2021/07/12 01:44:59;;;;;;;3.20;2.20;;;;;;;;;;5065085;28;20140;-75
2021/07/12 01:47:44;;;;;;;3.72;2.17;;;;;;;;;;5063386;28;20401;-75
2021/07/12 01:50:32;;;;;;;3.10;2.45;;;;;;;;;;5068991;28;20050;-75
2021/07/12 01:53:19;;;;;;;3.25;2.38;;;;;;;;;;5060162;28;20036;-75
2021/07/12 01:56:04;;;;;;;2.80;2.40;;;;;;;;;;5068482;28;20079;-74
2021/07/12 01:58:58;;;;;;;5.03;2.40;;;;;;;;;;5062208;28;20566;-75
2021/07/12 02:01:43;;;;;;;3.47;2.42;;;;;;;;;;5037062;28;20055;-74
2021/07/12 02:04:27;;;;;;;2.95;2.38;;;;;;;;;;5061524;28;20186;-75
2021/07/12 02:07:13;;;;;;;3.35;2.30;;;;;;;;;;5050985;28;20043;-75
2021/07/12 02:09:57;;;;;;;3.83;2.60;;;;;;;;;;5067738;28;20082;-75
2021/07/12 02:12:42;;;;;;;3.78;2.58;;;;;;;;;;5039406;28;20039;-74
2021/07/12 02:15:27;;;;;;;3.22;2.80;;;;;;;;;;5060203;28;20039;-75
2021/07/12 02:18:11;;;;;;;3.65;2.65;;;;;;;;;;5041518;28;20048;-74
2021/07/12 02:20:55;;;;;;;3.78;2.70;;;;;;;;;;5067996;28;20039;-75
2021/07/12 02:23:41;;;;;;;3.30;2.80;;;;;;;;;;5066647;28;20094;-75
2021/07/12 02:26:25;;;;;;;3.67;2.60;;;;;;;;;;5067581;28;20083;-74
2021/07/12 02:29:10;;;;;;;3.75;2.90;;;;;;;;;;5065862;28;20151;-75
2021/07/12 02:31:55;;;;;;;4.05;2.78;;;;;;;;;;5067876;28;20047;-74
2021/07/12 02:34:39;;;;;;;3.63;2.90;;;;;;;;;;5067043;28;20094;-75
2021/07/12 02:37:24;;;;;;;3.50;2.78;;;;;;;;;;5050027;28;20094;-75
2021/07/12 02:40:12;;;;;;;3.95;2.95;;;;;;;;;;5040998;28;20067;-74
2021/07/12 02:42:58;;;;;;;3.08;2.50;;;;;;;;;;5067263;28;20040;-75
2021/07/12 02:45:42;;;;;;;3.78;2.63;;;;;;;;;;5049000;28;20090;-75
2021/07/12 02:48:28;;;;;;;3.10;2.50;;;;;;;;;;5066703;28;20043;-75
2021/07/12 02:51:14;;;;;;;4.05;2.85;;;;;;;;;;5047188;28;20570;-75
2021/07/12 02:54:00;;;;;;;3.13;2.70;;;;;;;;;;5064791;28;20039;-75
2021/07/12 02:56:44;;;;;;;3.42;2.58;;;;;;;;;;5067102;28;20495;-76
2021/07/12 02:59:29;;;;;;;3.97;2.70;;;;;;;;;;5065921;28;20086;-75
2021/07/12 03:02:14;;;;;;;4.63;2.80;;;;;;;;;;5063264;28;20047;-75
2021/07/12 03:04:58;;;;;;;3.50;2.78;;;;;;;;;;5052578;28;20094;-75
2021/07/12 03:07:46;;;;;;;4.05;2.92;;;;;;;;;;5064612;28;20039;-75
2021/07/12 03:10:30;;;;;;;4.22;2.88;;;;;;;;;;5066264;28;20242;-75
2021/07/12 03:13:16;;;;;;;4.57;2.92;;;;;;;;;;5051289;28;20538;-75
2021/07/12 03:16:00;;;;;;;3.60;2.80;;;;;;;;;;5067790;28;20421;-75
2021/07/12 03:18:46;;;;;;;3.83;2.80;;;;;;;;;;5066385;28;20039;-75
2021/07/12 03:21:31;;;;;;;3.75;3.03;;;;;;;;;;5053207;28;20035;-75
2021/07/12 03:24:16;;;;;;;3.95;3.20;;;;;;;;;;5066209;28;20059;-75
2021/07/12 03:27:01;;;;;;;4.68;3.17;;;;;;;;;;5067269;28;20355;-75
2021/07/12 03:29:46;;;;;;;4.07;3.00;;;;;;;;;;5051210;28;20158;-75
2021/07/12 03:32:30;;;;;;;3.20;2.75;;;;;;;;;;5065650;28;20105;-75
2021/07/12 03:35:15;;;;;;;3.97;3.08;;;;;;;;;;5066310;28;20086;-75
2021/07/12 03:38:00;;;;;;;3.63;3.00;;;;;;;;;;5037610;28;20051;-74
2021/07/12 03:40:45;;;;;;;4.95;2.95;;;;;;;;;;5053933;28;20086;-75
2021/07/12 03:43:30;;;;;;;3.78;2.85;;;;;;;;;;5051308;28;20055;-75
2021/07/12 03:46:14;;;;;;;4.15;3.05;;;;;;;;;;5051118;28;20031;-74
2021/07/12 03:48:59;;;;;;;4.13;2.80;;;;;;;;;;5067197;28;20067;-75
2021/07/12 03:51:44;;;;;;;3.22;2.80;;;;;;;;;;5051942;28;20035;-75
2021/07/12 03:54:28;;;;;;;4.65;3.17;;;;;;;;;;5045728;28;20097;-75
2021/07/12 03:57:13;;;;;;;3.38;2.70;;;;;;;;;;5065542;28;20778;-75
2021/07/12 03:59:58;;;;;;;3.53;3.10;;;;;;;;;;5065351;28;20768;-75
2021/07/12 04:02:43;;;;;;;3.13;2.83;;;;;;;;;;5065057;28;20043;-75
2021/07/12 04:05:28;;;;;;;3.75;3.13;;;;;;;;;;5046849;28;20090;-74
2021/07/12 04:08:13;;;;;;;3.38;2.83;;;;;;;;;;5051527;28;20075;-75
2021/07/12 04:10:57;;;;;;;3.40;2.70;;;;;;;;;;5066544;28;20107;-75
2021/07/12 04:13:42;;;;;;;3.45;3.00;;;;;;;;;;5066957;28;20044;-75
2021/07/12 04:16:27;;;;;;;3.97;3.10;;;;;;;;;;5065354;28;20453;-74
2021/07/12 04:19:12;;;;;;;3.90;2.90;;;;;;;;;;5047340;28;20086;-75
2021/07/12 04:21:56;;;;;;;3.58;2.88;;;;;;;;;;5061943;28;20063;-74
2021/07/12 04:24:41;;;;;;;4.28;2.80;;;;;;;;;;5065066;28;20054;-75
2021/07/12 04:27:25;;;;;;;3.75;2.90;;;;;;;;;;5064414;28;20055;-74
2021/07/12 04:30:10;;;;;;;4.03;3.10;;;;;;;;;;5065122;28;20115;-75
2021/07/12 04:32:54;;;;;;;3.97;3.22;;;;;;;;;;5065557;28;20043;-75
2021/07/12 04:35:39;;;;;;;3.83;3.00;;;;;;;;;;5065018;28;20078;-75
2021/07/12 04:38:23;;;;;;;3.97;2.83;;;;;;;;;;5065860;28;20039;-75
2021/07/12 04:41:08;;;;;;;4.85;2.90;;;;;;;;;;5065276;28;20537;-75
2021/07/12 04:43:52;;;;;;;4.97;3.40;;;;;;;;;;5045207;28;20044;-75
2021/07/12 04:46:37;;;;;;;4.63;2.90;;;;;;;;;;5061499;28;20055;-75
2021/07/12 04:49:21;;;;;;;3.33;2.78;;;;;;;;;;5063110;28;20590;-75
2021/07/12 04:52:06;;;;;;;4.93;3.03;;;;;;;;;;5061154;28;20090;-74
2021/07/12 04:54:51;;;;;;;4.18;2.90;;;;;;;;;;5062759;28;20043;-74
2021/07/12 04:57:35;;;;;;;4.53;3.38;;;;;;;;;;5058491;28;20079;-74
2021/07/12 05:00:20;;;;;;;4.63;3.00;;;;;;;;;;5064689;28;20047;-75
2021/07/12 05:03:06;;;;;;;4.43;3.00;;;;;;;;;;5042349;28;20082;-75
2021/07/12 05:05:50;;;;;;;4.03;3.10;;;;;;;;;;5066215;28;20044;-75
2021/07/12 05:08:35;;;;;;;3.50;2.95;;;;;;;;;;5066284;28;20459;-74
2021/07/12 05:11:20;;;;;;;3.40;3.03;;;;;;;;;;5049575;28;20071;-73
2021/07/12 05:14:05;;;;;;;3.28;2.88;;;;;;;;;;5051233;28;20043;-75
2021/07/12 05:16:51;;;;;;;4.25;3.00;;;;;;;;;;5053702;28;20047;-74
2021/07/12 05:19:35;;;;;;;4.55;3.10;;;;;;;;;;5060863;28;20040;-75
2021/07/12 05:22:22;;;;;;;3.95;3.20;;;;;;;;;;5066056;28;20051;-75
2021/07/12 05:25:09;;;;;;;3.00;2.65;;;;;;;;;;5049721;28;20986;-75
2021/07/12 05:27:53;;;;;;;3.65;2.92;;;;;;;;;;5066460;28;20059;-74
2021/07/12 05:30:38;;;;;;;5.20;2.97;;;;;;;;;;5048761;28;20039;-75
2021/07/12 05:33:22;;;;;;;3.65;2.80;;;;;;;;;;5051930;28;20031;-74
2021/07/12 05:36:07;;;;;;;4.80;2.80;;;;;;;;;;5065723;28;20051;-74
2021/07/12 05:38:52;;;;;;;3.60;2.88;;;;;;;;;;5066218;28;20050;-74
2021/07/12 05:41:36;;;;;;;5.40;3.00;;;;;;;;;;5051692;28;20059;-74
2021/07/12 05:44:21;;;;;;;3.40;2.80;;;;;;;;;;5065430;28;20062;-75
2021/07/12 05:47:05;;;;;;;3.20;2.78;;;;;;;;;;5065996;28;20090;-75
2021/07/12 05:49:50;;;;;;;3.28;2.80;;;;;;;;;;5065450;28;20058;-74
2021/07/12 05:52:36;;;;;;;4.60;3.03;;;;;;;;;;5051726;28;20098;-75
2021/07/12 05:55:21;;;;;;;3.60;2.78;;;;;;;;;;5049779;28;20125;-75
2021/07/12 05:58:05;;;;;;;3.58;2.88;;;;;;;;;;5061979;28;20048;-75
2021/07/12 06:00:50;;;;;;;3.78;3.08;;;;;;;;;;5062972;28;20083;-75
2021/07/12 06:03:34;;;;;;;4.07;2.95;;;;;;;;;;5066608;28;20074;-75
2021/07/12 06:06:19;;;;;;;4.20;2.95;;;;;;;;;;5065883;28;20098;-75
2021/07/12 06:09:03;;;;;;;5.05;3.20;;;;;;;;;;5033483;28;20044;-75
2021/07/12 06:11:48;;;;;;;3.58;2.70;;;;;;;;;;5066331;28;20043;-75
2021/07/12 06:14:32;;;;;;;2.90;2.50;;;;;;;;;;5046052;28;20087;-75
2021/07/12 06:17:17;;;;;;;3.75;2.78;;;;;;;;;;5037560;28;20067;-75
2021/07/12 06:20:03;;;;;;;3.22;2.75;;;;;;;;;;5065059;28;20039;-75
2021/07/12 06:22:48;;;;;;;3.83;2.88;;;;;;;;;;5045156;28;20043;-75
2021/07/12 06:25:33;;;;;;;3.03;2.72;;;;;;;;;;5061874;28;20043;-74
2021/07/12 06:28:17;;;;;;;3.45;2.90;;;;;;;;;;5053957;28;20459;-75
2021/07/12 06:31:02;;;;;;;3.30;2.47;;;;;;;;;;5064472;28;20090;-75
2021/07/12 06:33:47;;;;;;;4.40;2.90;;;;;;;;;;5065136;28;20035;-75
2021/07/12 06:36:31;;;;;;;3.90;2.88;;;;;;;;;;5065563;28;20055;-75
2021/07/12 06:39:16;;;;;;;4.10;3.13;;;;;;;;;;5050810;28;20043;-75
2021/07/12 06:42:01;;;;;;;3.55;2.80;;;;;;;;;;5064977;28;20046;-75
2021/07/12 06:44:45;;;;;;;2.95;2.58;;;;;;;;;;5064403;28;20520;-75
2021/07/12 06:47:29;;;;;;;3.28;2.80;;;;;;;;;;5036309;28;20035;-76
2021/07/12 06:50:14;;;;;;;4.38;3.08;;;;;;;;;;5063643;28;20181;-76
2021/07/12 06:52:59;;;;;;;3.63;2.80;;;;;;;;;;5064634;28;20054;-75
2021/07/12 06:55:44;;;;;;;3.10;2.80;;;;;;;;;;5064298;28;20044;-75
2021/07/12 06:58:28;;;;;;;4.18;2.85;;;;;;;;;;5062815;28;20103;-76
2021/07/12 07:01:13;;;;;;;3.20;2.67;;;;;;;;;;5065405;28;20042;-76
2021/07/12 07:03:58;;;;;;;3.63;2.70;;;;;;;;;;5064378;28;20043;-75
2021/07/12 07:06:42;;;;;;;3.38;2.75;;;;;;;;;;5065013;28;20036;-75
2021/07/12 07:09:27;;;;;;;3.47;2.47;;;;;;;;;;5062350;28;20452;-76
2021/07/12 07:12:11;;;;;;;3.85;2.88;;;;;;;;;;5064618;28;20039;-75
2021/07/12 07:14:56;;;;;;;3.50;2.63;;;;;;;;;;5060776;28;20094;-76
2021/07/12 07:17:41;;;;;;;2.90;2.50;;;;;;;;;;5062151;28;20130;-75
2021/07/12 07:20:25;;;;;;;3.92;3.10;;;;;;;;;;5067343;28;20039;-75
2021/07/12 07:23:10;;;;;;;3.65;2.85;;;;;;;;;;5073072;28;20056;-75
2021/07/12 07:25:55;;;;;;;3.03;2.50;;;;;;;;;;5063778;28;20481;-76
2021/07/12 07:28:40;;;;;;;3.05;2.50;;;;;;;;;;5049285;28;20408;-76
2021/07/12 07:31:25;;;;;;;4.40;2.60;;;;;;;;;;5064738;28;20100;-76
2021/07/12 07:34:09;;;;;;;3.15;2.70;;;;;;;;;;5049643;28;20610;-76
2021/07/12 07:36:56;;;;;;;3.40;2.70;;;;;;;;;;5049003;28;20071;-76
2021/07/12 07:39:41;;;;;;;4.32;2.65;;;;;;;;;;5048229;28;20518;-76
2021/07/12 07:42:26;;;;;;;3.78;2.58;;;;;;;;;;5060398;28;20117;-76
2021/07/12 07:45:12;;;;;;;4.05;2.60;;;;;;;;;;5046966;28;20073;-76
2021/07/12 07:47:57;;;;;;;3.40;2.45;;;;;;;;;;5063410;28;20602;-75
2021/07/12 07:50:43;;;;;;;3.17;2.63;;;;;;;;;;5062818;28;20048;-75
2021/07/12 07:53:27;;;;;;;3.67;2.60;;;;;;;;;;5063296;28;20055;-75
2021/07/12 07:56:12;;;;;;;4.13;2.47;;;;;;;;;;5053331;28;20039;-76
2021/07/12 07:58:56;;;;;;;3.10;2.65;;;;;;;;;;5063279;28;20090;-74
2021/07/12 08:01:41;;;;;;;3.05;2.33;;;;;;;;;;5063595;28;20062;-75
2021/07/12 08:04:26;;;;;;;3.05;2.65;;;;;;;;;;5043877;28;20548;-75
2021/07/12 08:07:11;;;;;;;4.28;2.67;;;;;;;;;;5064048;28;20706;-74
2021/07/12 08:09:55;;;;;;;2.88;2.38;;;;;;;;;;5040593;28;20146;-74
2021/07/12 08:12:40;;;;;;;4.38;2.58;;;;;;;;;;5062791;28;20527;-75
2021/07/12 08:15:25;;;;;;;2.40;2.10;;;;;;;;;;5043208;28;20550;-75
2021/07/12 08:18:10;;;;;;;3.08;2.60;;;;;;;;;;5063386;28;20071;-75
2021/07/12 08:20:54;;;;;;;3.42;2.35;;;;;;;;;;5062848;28;20094;-75
2021/07/12 08:23:41;;;;;;;3.30;2.38;;;;;;;;;;5063024;28;20066;-75
2021/07/12 08:26:26;;;;;;;3.22;2.30;;;;;;;;;;5063170;28;20047;-74
2021/07/12 08:29:10;;;;;;;5.22;2.40;;;;;;;;;;5061859;28;20047;-75
2021/07/12 08:31:55;;;;;;;3.38;2.35;;;;;;;;;;5063996;28;20101;-75
2021/07/12 08:34:41;;;;;;;3.22;2.50;;;;;;;;;;5064277;28;20051;-74
2021/07/12 08:37:26;;;;;;;3.17;2.67;;;;;;;;;;5067578;28;20047;-75
2021/07/12 08:40:11;;;;;;;2.92;2.30;;;;;;;;;;5051596;28;20129;-75
2021/07/12 08:42:55;;;;;;;2.92;2.33;;;;;;;;;;5065880;28;20101;-74
2021/07/12 08:45:40;;;;;;;3.05;2.40;;;;;;;;;;5052190;28;20132;-74
2021/07/12 08:48:24;;;;;;;2.88;2.35;;;;;;;;;;5067221;28;20673;-75
2021/07/12 08:51:09;;;;;;;3.05;2.20;;;;;;;;;;5065378;28;20554;-74
2021/07/12 08:53:55;;;;;;;2.88;2.20;;;;;;;;;;5065972;28;20192;-74
2021/07/12 08:56:39;;;;;;;2.90;2.40;;;;;;;;;;5049031;28;20039;-75
2021/07/12 08:59:24;;;;;;;2.95;2.17;;;;;;;;;;5039479;28;20554;-75
2021/07/12 09:02:13;;;;;;;2.80;2.05;;;;;;;;;;5065819;28;20509;-74
2021/07/12 09:04:58;;;;;;;3.13;2.30;;;;;;;;;;5067304;28;20070;-74
2021/07/12 09:07:42;;;;;;;2.63;2.05;;;;;;;;;;5052578;28;20119;-74
2021/07/12 09:10:26;;;;;;;3.20;1.90;;;;;;;;;;5062475;28;20849;-75
2021/07/12 09:13:11;;;;;;;2.85;2.10;;;;;;;;;;5061823;28;20174;-74
2021/07/12 09:15:56;;;;;;;2.50;2.03;;;;;;;;;;5067486;28;20089;-74
2021/07/12 09:18:40;;;;;;;3.15;2.20;;;;;;;;;;5052247;28;20063;-75
2021/07/12 09:21:25;;;;;;;2.60;2.05;;;;;;;;;;5066147;28;20039;-74
2021/07/12 09:24:16;;;;;;;3.30;2.20;;;;;;;;;;5063310;28;20093;-75
2021/07/12 09:27:05;;;;;;;3.42;2.20;;;;;;;;;;5050805;28;20028;-75
2021/07/12 09:29:54;;;;;;;4.45;2.10;;;;;;;;;;5045327;28;20059;-75
2021/07/12 09:32:39;;;;;;;2.58;2.20;;;;;;;;;;5043912;28;20492;-75
2021/07/12 09:35:24;;;;;;;2.33;2.03;;;;;;;;;;5064119;28;20043;-75
2021/07/12 09:38:08;;;;;;;3.00;2.40;;;;;;;;;;5057789;28;20660;-75
2021/07/12 09:40:53;;;;;;;2.50;2.20;;;;;;;;;;5062903;28;20035;-75
2021/07/12 09:43:37;;;;;;;2.90;2.13;;;;;;;;;;5064727;28;20071;-75
2021/07/12 09:46:31;;;;;;;4.28;2.00;;;;;;;;;;5064717;28;20114;-75
2021/07/12 09:49:17;;;;;;;3.25;2.22;;;;;;;;;;5066094;28;20499;-75
2021/07/12 09:52:02;;;;;;;3.10;2.15;;;;;;;;;;5050346;28;20047;-75
2021/07/12 09:54:48;;;;;;;4.60;2.10;;;;;;;;;;5062152;28;20043;-75
2021/07/12 09:57:33;;;;;;;3.72;2.30;;;;;;;;;;5047340;28;20499;-75
2021/07/12 10:00:19;;;;;;;3.83;2.33;;;;;;;;;;5064628;28;20043;-75
2021/07/12 10:03:04;;;;;;;2.72;2.33;;;;;;;;;;5060613;28;20591;-75
2021/07/12 10:05:49;;;;;;;3.67;2.17;;;;;;;;;;5050523;28;20075;-75
2021/07/12 10:08:34;;;;;;;3.75;2.50;;;;;;;;;;5063803;28;20055;-75
2021/07/12 10:11:18;;;;;;;2.70;2.10;;;;;;;;;;5065280;28;20804;-75
2021/07/12 10:14:04;;;;;;;4.32;2.30;;;;;;;;;;5044602;28;20044;-75
2021/07/12 10:16:49;;;;;;;3.65;2.10;;;;;;;;;;5054301;28;20146;-75
2021/07/12 10:19:34;;;;;;;3.47;2.25;;;;;;;;;;5047730;28;20071;-75
2021/07/12 10:22:18;;;;;;;3.15;2.30;;;;;;;;;;5050902;28;20039;-76
2021/07/12 10:25:07;;;;;;;2.47;2.20;;;;;;;;;;5062606;28;20535;-76
2021/07/12 10:27:52;;;;;;;2.97;2.30;;;;;;;;;;5065255;28;20132;-75
2021/07/12 10:30:40;;;;;;;3.30;2.40;;;;;;;;;;5064197;28;20035;-75
2021/07/12 10:33:32;;;;;;;2.92;2.15;;;;;;;;;;5064544;28;20047;-75
2021/07/12 10:36:16;;;;;;;;;;;;;;;;;;5042604;28;20093;-75
2021/07/12 10:39:01;;;;;;;2.92;2.30;;;;;;;;;;5062941;23;20412;-73
2021/07/12 10:41:49;;;;;;;2.53;2.00;;;;;;;;;;5006127;28;20048;-73
2021/07/12 10:44:54;;;;;;;3.15;2.28;;;;;;;;;;5010698;28;20162;-73
2021/07/12 10:47:45;;;;;;;2.60;2.00;;;;;;;;;;5019721;28;20041;-74
2021/07/12 10:50:38;;;;;;;2.30;2.10;;;;;;;;;;5014975;28;20109;-73
2021/07/12 10:53:24;;;;;;;3.35;2.15;;;;;;;;;;5026511;28;20622;-74
2021/07/12 10:56:10;;;;;;;2.80;2.40;;;;;;;;;;5023971;28;20455;-73
2021/07/12 10:58:57;;;;;;;2.83;2.10;;;;;;;;;;5023165;28;20044;-76
2021/07/12 11:01:42;;;;;;;2.90;2.22;;;;;;;;;;5023764;28;20670;-75
2021/07/12 11:04:33;;;;;;;3.85;2.22;;;;;;;;;;5005599;28;20064;-73
2021/07/12 11:07:19;;;;;;;2.63;2.03;;;;;;;;;;5022047;28;20044;-74
2021/07/12 11:10:04;;;;;;;2.40;2.13;;;;;;;;;;5020686;28;20293;-74
2021/07/12 11:12:50;;;;;;;2.80;1.85;;;;;;;;;;5018788;28;20052;-76
2021/07/12 11:15:36;;;;;;;2.70;2.20;;;;;;;;;;5017738;28;20056;-75
2021/07/12 11:18:28;;;;;;;3.63;2.30;;;;;;;;;;5018502;28;20149;-74
2021/07/12 11:21:14;;;;;;;2.72;2.20;;;;;;;;;;5019488;28;20040;-74
2021/07/12 11:24:08;;;;;;;2.95;1.95;;;;;;;;;;5022861;28;20646;-74
2021/07/12 11:26:53;;;;;;;2.40;2.00;;;;;;;;;;5020889;28;20445;-74
2021/07/12 11:29:38;;;;;;;4.72;2.30;;;;;;;;;;5022781;28;20044;-74
2021/07/12 11:32:23;;;;;;;2.20;1.92;;;;;;;;;;5023272;28;20048;-74
2021/07/12 11:35:07;;;;;;;3.47;2.50;;;;;;;;;;5014656;28;20122;-74
2021/07/12 11:37:57;;;;;;;2.58;2.20;;;;;;;;;;5010334;28;20056;-74
2021/07/12 11:40:42;;;;;;;2.50;2.10;;;;;;;;;;5025978;28;20095;-75
2021/07/12 11:43:27;;;;;;;2.80;1.95;;;;;;;;;;5005095;28;20042;-74
2021/07/12 11:46:14;;;;;;;3.30;2.13;;;;;;;;;;5025641;28;20489;-74
2021/07/12 11:49:05;;;;;;;3.67;2.17;;;;;;;;;;5005256;28;20087;-74
2021/07/12 11:51:54;;;;;;;2.33;1.88;;;;;;;;;;5022547;28;20052;-74
2021/07/12 11:54:39;;;;;;;2.63;2.05;;;;;;;;;;5024698;28;20136;-75
2021/07/12 11:57:25;;;;;;;2.78;2.08;;;;;;;;;;5024044;28;20052;-75
2021/07/12 12:00:14;;;;;;;2.53;2.17;;;;;;;;;;5024762;28;20045;-74
2021/07/12 12:03:03;;;;;;;2.35;2.15;;;;;;;;;;5026172;28;20086;-74
2021/07/12 12:05:48;;;;;;;2.53;1.98;;;;;;;;;;5023702;28;20596;-75
2021/07/12 12:08:32;;;;;;;3.10;2.35;;;;;;;;;;5010139;28;20059;-75
2021/07/12 12:11:25;;;;;;;2.97;2.03;;;;;;;;;;5024720;28;20052;-74
2021/07/12 12:14:09;;;;;;;2.30;2.00;;;;;;;;;;5010054;28;20056;-74
2021/07/12 12:16:53;;;;;;;2.92;2.05;;;;;;;;;;5024427;28;20234;-75
2021/07/12 12:19:38;;;;;;;2.40;2.00;;;;;;;;;;5026799;28;20463;-75
2021/07/12 12:22:22;;;;;;;2.67;2.30;;;;;;;;;;5022519;28;20072;-75
2021/07/12 12:25:07;;;;;;;3.42;2.13;;;;;;;;;;5028676;28;20179;-75
2021/07/12 12:27:52;;;;;;;2.40;1.92;;;;;;;;;;5008008;28;20052;-74
2021/07/12 12:30:37;;;;;;;2.55;2.05;;;;;;;;;;5022588;28;20067;-74
2021/07/12 12:33:25;;;;;;;2.50;2.20;;;;;;;;;;5007909;28;20414;-74
2021/07/12 12:36:11;;;;;;;3.17;2.28;;;;;;;;;;5020089;28;20040;-74
2021/07/12 12:38:59;;;;;;;3.25;2.10;;;;;;;;;;5018509;28;20049;-75
2021/07/12 12:41:51;;;;;;;2.28;1.83;;;;;;;;;;5014156;28;20137;-74
2021/07/12 12:44:37;;;;;;;2.78;2.08;;;;;;;;;;5007567;28;20791;-74
2021/07/12 12:47:27;;;;;;;3.40;2.05;;;;;;;;;;5004464;28;20797;-74
2021/07/12 12:50:12;;;;;;;3.13;2.00;;;;;;;;;;5007717;28;20061;-74
2021/07/12 12:53:05;;;;;;;2.88;2.30;;;;;;;;;;5016313;28;20387;-74
2021/07/12 12:55:52;;;;;;;3.65;2.30;;;;;;;;;;5023669;28;20032;-74
2021/07/12 12:58:37;;;;;;;2.63;2.25;;;;;;;;;;5021304;28;20039;-74
2021/07/12 13:01:21;;;;;;;3.30;2.20;;;;;;;;;;5011281;28;20160;-75
2021/07/12 13:04:10;;;;;;;2.50;1.95;;;;;;;;;;5023073;28;20052;-73
2021/07/12 13:06:57;;;;;;;3.08;2.10;;;;;;;;;;5016048;28;20542;-74
2021/07/12 13:09:42;;;;;;;3.50;2.35;;;;;;;;;;5006129;28;20558;-74
2021/07/12 13:12:27;;;;;;;4.00;2.20;;;;;;;;;;5006307;28;20556;-74
2021/07/12 13:15:12;;;;;;;3.83;2.30;;;;;;;;;;4995039;28;20040;-76
2021/07/12 13:17:58;;;;;;;4.47;2.33;;;;;;;;;;5005420;28;20095;-74
2021/07/12 13:20:43;;;;;;;2.92;1.90;;;;;;;;;;5010681;28;20410;-74
2021/07/12 13:23:28;;;;;;;2.67;1.98;;;;;;;;;;5007975;28;20040;-74
2021/07/12 13:26:16;;;;;;;2.28;1.88;;;;;;;;;;5024972;28;20044;-75
2021/07/12 13:29:03;;;;;;;3.95;2.20;;;;;;;;;;5021346;28;20045;-75
2021/07/12 13:31:48;;;;;;;4.95;2.30;;;;;;;;;;5024069;28;20096;-74
2021/07/12 13:34:33;;;;;;;4.50;1.95;;;;;;;;;;5024595;28;20103;-74
2021/07/12 13:37:17;;;;;;;4.43;2.30;;;;;;;;;;5024974;28;20163;-74
2021/07/12 13:40:02;;;;;;;3.20;2.40;;;;;;;;;;5025891;28;20048;-74
2021/07/12 13:42:47;;;;;;;3.40;2.17;;;;;;;;;;5012240;28;20035;-75
2021/07/12 13:45:32;;;;;;;4.85;2.40;;;;;;;;;;5025768;28;20053;-74
2021/07/12 13:48:16;;;;;;;3.15;2.17;;;;;;;;;;5026013;28;20452;-74
2021/07/12 13:51:01;;;;;;;3.78;2.25;;;;;;;;;;4998986;28;20090;-74
2021/07/12 13:53:46;;;;;;;3.20;2.33;;;;;;;;;;5015278;28;20040;-75
2021/07/12 13:56:31;;;;;;;3.28;2.30;;;;;;;;;;5001052;28;20709;-74
2021/07/12 13:59:16;;;;;;;3.53;2.50;;;;;;;;;;5014692;28;20037;-74
2021/07/12 14:02:00;;;;;;;4.00;2.58;;;;;;;;;;5038090;28;20087;-74
2021/07/12 14:04:45;;;;;;;2.88;2.30;;;;;;;;;;5010487;28;20053;-74
2021/07/12 14:07:30;;;;;;;5.90;2.50;;;;;;;;;;5018552;28;20064;-75
2021/07/12 14:10:16;;;;;;;3.30;2.22;;;;;;;;;;5024640;28;20086;-74
2021/07/12 14:13:01;;;;;;;3.13;2.00;;;;;;;;;;4998405;28;20032;-74
2021/07/12 14:15:46;;;;;;;2.83;2.08;;;;;;;;;;5018938;28;20045;-74
2021/07/12 14:18:31;;;;;;;4.07;2.30;;;;;;;;;;5015693;28;20531;-72
2021/07/12 14:21:16;;;;;;;5.22;2.40;;;;;;;;;;5026615;28;20076;-78
2021/07/12 14:24:01;;;;;;;4.97;2.55;;;;;;;;;;5025484;28;20044;-74
2021/07/12 14:26:45;;;;;;;3.75;2.58;;;;;;;;;;5020185;28;20072;-73
2021/07/12 14:29:30;;;;;;;4.60;2.70;;;;;;;;;;5023297;28;21056;-73
2021/07/12 14:32:14;;;;;;;4.50;2.70;;;;;;;;;;5024200;28;20044;-73
2021/07/12 14:34:59;;;;;;;4.38;3.00;;;;;;;;;;5027083;28;20080;-73
2021/07/12 14:37:43;;;;;;;4.10;2.65;;;;;;;;;;5024962;28;20117;-74
2021/07/12 14:40:28;;;;;;;5.88;2.85;;;;;;;;;;5019918;28;20044;-74
2021/07/12 14:43:12;;;;;;;4.15;2.70;;;;;;;;;;5026438;28;20103;-72
2021/07/12 14:45:56;;;;;;;3.00;2.33;;;;;;;;;;5013051;28;20049;-73
2021/07/12 14:48:41;;;;;;;3.78;2.40;;;;;;;;;;5022079;28;20064;-74
2021/07/12 14:51:26;;;;;;;3.53;2.50;;;;;;;;;;5014375;28;20566;-74
2021/07/12 14:54:10;;;;;;;4.25;2.70;;;;;;;;;;5021344;28;20091;-73
2021/07/12 14:56:55;;;;;;;3.80;2.50;;;;;;;;;;5024707;28;20103;-73
2021/07/12 14:59:40;;;;;;;4.18;2.65;;;;;;;;;;5020478;28;20060;-73
2021/07/12 15:02:25;;;;;;;3.50;2.78;;;;;;;;;;5023310;28;20117;-73
2021/07/12 15:05:10;;;;;;;3.08;2.60;;;;;;;;;;5001211;28;20076;-73
2021/07/12 15:07:57;;;;;;;3.03;2.50;;;;;;;;;;5012104;28;20037;-74
2021/07/12 15:10:42;;;;;;;4.07;2.90;;;;;;;;;;5012862;28;20057;-74
2021/07/12 15:13:27;;;;;;;3.50;2.80;;;;;;;;;;5017797;28;20044;-73
2021/07/12 15:16:11;;;;;;;5.50;3.17;;;;;;;;;;5019811;28;20410;-73
2021/07/12 15:18:59;;;;;;;3.42;3.13;;;;;;;;;;5024363;28;20036;-73
2021/07/12 15:21:45;;;;;;;4.65;3.30;;;;;;;;;;5022605;28;20055;-76
2021/07/12 15:24:29;;;;;;;4.30;2.67;;;;;;;;;;5024266;28;20052;-74
2021/07/12 15:27:14;;;;;;;3.20;2.90;;;;;;;;;;5025205;28;20092;-73
2021/07/12 15:29:59;;;;;;;3.63;3.10;;;;;;;;;;5022075;28;20410;-74
2021/07/12 15:32:44;;;;;;;4.22;2.97;;;;;;;;;;5010596;28;20040;-74
2021/07/12 15:35:29;;;;;;;3.80;2.85;;;;;;;;;;5025290;28;20036;-72
2021/07/12 15:38:14;;;;;;;5.20;2.97;;;;;;;;;;5016168;28;20045;-72
2021/07/12 15:40:59;;;;;;;5.10;3.10;;;;;;;;;;5022311;28;20500;-72
2021/07/12 15:43:44;;;;;;;3.78;3.08;;;;;;;;;;5009055;28;20044;-72
2021/07/12 15:46:29;;;;;;;4.82;3.33;;;;;;;;;;5024779;28;20165;-72
2021/07/12 15:49:14;;;;;;;5.32;3.17;;;;;;;;;;5012395;28;20501;-73
2021/07/12 15:51:59;;;;;;;4.68;3.10;;;;;;;;;;5022911;28;20059;-73
2021/07/12 15:54:44;;;;;;;4.47;3.53;;;;;;;;;;5022666;28;20043;-76
2021/07/12 15:57:29;;;;;;;4.40;3.15;;;;;;;;;;5014861;28;20370;-74
2021/07/12 16:00:14;;;;;;;5.15;3.70;;;;;;;;;;5023801;28;20087;-75
2021/07/12 16:02:59;;;;;;;4.15;3.75;;;;;;;;;;5016696;28;20506;-74
2021/07/12 16:05:44;;;;;;;3.53;3.22;;;;;;;;;;5024471;28;20137;-74
2021/07/12 16:08:29;;;;;;;4.50;3.58;;;;;;;;;;5018758;28;20548;-74
2021/07/12 16:11:13;;;;;;;4.28;3.22;;;;;;;;;;5022821;28;20056;-75
2021/07/12 16:13:58;;;;;;;4.15;3.60;;;;;;;;;;5008685;28;20448;-74
2021/07/12 16:16:43;;;;;;;5.20;3.40;;;;;;;;;;5003618;28;20125;-75
2021/07/12 16:19:29;;;;;;;4.68;3.50;;;;;;;;;;5023001;28;20138;-75
2021/07/12 16:22:13;;;;;;;5.05;3.72;;;;;;;;;;5023689;28;20070;-74
2021/07/12 16:24:58;;;;;;;4.50;3.55;;;;;;;;;;5018683;28;20108;-74
2021/07/12 16:27:43;;;;;;;4.30;3.65;;;;;;;;;;5005082;28;20041;-74
2021/07/12 16:30:27;;;;;;;5.03;3.80;;;;;;;;;;5008717;28;20679;-74
2021/07/12 16:33:12;;;;;;;4.53;3.60;;;;;;;;;;5010108;28;20719;-74